createdAt,value
2022-08-03T00:00:05.992Z,69.95
2022-08-03T00:01:05.951Z,70.36
2022-08-03T00:02:05.996Z,70.15
2022-08-03T00:03:06.028Z,70.06
2022-08-03T00:04:05.931Z,70.36
2022-08-03T00:05:05.909Z,70.97
2022-08-03T00:06:05.903Z,70.86
2022-08-03T00:07:05.869Z,70.97
2022-08-03T00:08:05.895Z,70.86
2022-08-03T00:09:05.855Z,70.89
2022-08-03T00:10:05.868Z,71.10
2022-08-03T00:11:05.815Z,71.00
2022-08-03T00:12:05.824Z,70.89
2022-08-03T00:13:05.848Z,71.10
2022-08-03T00:14:05.798Z,71.50
2022-08-03T00:15:10.465Z,71.40
2022-08-03T00:16:05.767Z,71.80
2022-08-03T00:17:05.738Z,71.70
2022-08-03T00:18:05.744Z,71.70
2022-08-03T00:19:05.813Z,71.50
2022-08-03T00:20:05.725Z,71.70
2022-08-03T00:21:05.689Z,71.80
2022-08-03T00:22:05.681Z,71.40
2022-08-03T00:23:05.661Z,71.20
2022-08-03T00:24:05.721Z,70.89
2022-08-03T00:25:05.650Z,71.00
2022-08-03T00:26:05.662Z,71.40
2022-08-03T00:27:05.612Z,71.10
2022-08-03T00:28:05.606Z,71.10
2022-08-03T00:29:05.579Z,71.00
2022-08-03T00:30:05.612Z,71.00
2022-08-03T00:31:05.555Z,70.89
2022-08-03T00:32:05.561Z,71.10
2022-08-03T00:33:05.529Z,71.10
2022-08-03T00:34:05.980Z,71.30
2022-08-03T00:35:09.799Z,71.50
2022-08-03T00:36:05.513Z,71.50
2022-08-03T00:37:05.475Z,71.30
2022-08-03T00:38:05.477Z,71.10
2022-08-03T00:39:05.470Z,70.89
2022-08-03T00:40:05.632Z,70.79
2022-08-03T00:41:05.425Z,71.10
2022-08-03T00:42:05.430Z,71.20
2022-08-03T00:43:05.396Z,71.30
2022-08-03T00:44:05.424Z,71.30
2022-08-03T00:45:05.371Z,71.50
2022-08-03T00:46:05.403Z,71.50
2022-08-03T00:47:05.346Z,72.00
2022-08-03T00:48:05.349Z,72.11
2022-08-03T00:49:05.360Z,72.31
2022-08-03T00:50:05.328Z,71.91
2022-08-03T00:51:05.348Z,71.91
2022-08-03T00:52:09.315Z,71.80
2022-08-03T00:53:05.266Z,72.11
2022-08-03T00:54:05.283Z,72.41
2022-08-03T00:55:05.251Z,72.31
2022-08-03T00:56:05.244Z,72.41
2022-08-03T00:57:05.239Z,72.20
2022-08-03T00:58:05.231Z,72.11
2022-08-03T00:59:05.193Z,72.00
2022-08-03T01:00:05.206Z,71.91
2022-08-03T01:01:05.231Z,71.80
2022-08-03T01:02:05.193Z,71.70
2022-08-03T01:03:05.162Z,71.91
2022-08-03T01:04:05.132Z,71.80
2022-08-03T01:05:05.127Z,71.60
2022-08-03T01:06:05.093Z,71.10
2022-08-03T01:07:05.102Z,71.40
2022-08-03T01:08:05.116Z,71.10
2022-08-03T01:09:05.086Z,71.10
2022-08-03T01:10:05.042Z,70.89
2022-08-03T01:11:05.043Z,71.30
2022-08-03T01:12:05.020Z,71.10
2022-08-03T01:13:05.052Z,71.50
2022-08-03T01:14:18.820Z,71.50
2022-08-03T01:15:05.023Z,71.50
2022-08-03T01:16:04.969Z,71.30
2022-08-03T01:17:04.980Z,70.89
2022-08-03T01:18:04.987Z,70.69
2022-08-03T01:20:00.580Z,70.49
2022-08-03T01:21:01.588Z,70.59
2022-08-03T01:22:01.548Z,70.79
2022-08-03T01:23:01.553Z,70.39
2022-08-03T01:24:01.551Z,70.49
2022-08-03T01:25:01.530Z,70.29
2022-08-03T01:26:01.501Z,70.49
2022-08-03T01:27:03.269Z,70.49
2022-08-03T01:28:01.471Z,70.19
2022-08-03T01:29:01.531Z,69.89
2022-08-03T01:30:01.443Z,69.99
2022-08-03T01:31:01.447Z,69.89
2022-08-03T01:33:02.687Z,69.68
2022-08-03T01:33:08.169Z,69.65
2022-08-03T01:34:01.406Z,69.59
2022-08-03T01:35:01.423Z,69.79
2022-08-03T01:36:01.370Z,69.59
2022-08-03T01:37:01.390Z,69.48
2022-08-03T01:38:01.350Z,69.59
2022-08-03T01:39:01.346Z,69.89
2022-08-03T01:40:01.360Z,69.89
2022-08-03T01:41:01.318Z,70.59
2022-08-03T01:42:01.292Z,70.69
2022-08-03T01:43:01.302Z,70.59
2022-08-03T01:44:29.966Z,70.69
2022-08-03T01:45:01.282Z,71.03
2022-08-03T01:46:01.269Z,71.13
2022-08-03T01:47:01.249Z,71.03
2022-08-03T01:48:01.211Z,71.03
2022-08-03T01:49:01.299Z,70.83
2022-08-03T01:50:01.194Z,71.03
2022-08-03T01:51:01.229Z,71.03
2022-08-03T01:52:04.086Z,71.33
2022-08-03T01:53:01.164Z,71.13
2022-08-03T01:54:01.140Z,71.23
2022-08-03T01:55:01.140Z,71.44
2022-08-03T01:56:01.113Z,71.33
2022-08-03T01:57:01.140Z,71.53
2022-08-03T01:58:06.177Z,71.73
2022-08-03T01:59:01.089Z,71.64
2022-08-03T02:00:01.058Z,70.83
2022-08-03T02:01:01.211Z,70.73
2022-08-03T02:02:15.258Z,70.93
2022-08-03T02:03:01.043Z,71.13
2022-08-03T02:04:01.332Z,71.23
2022-08-03T02:05:01.007Z,71.33
2022-08-03T02:07:01.437Z,71.64
2022-08-03T02:07:07.853Z,71.73
2022-08-03T02:08:00.976Z,72.44
2022-08-03T02:09:00.955Z,72.78
2022-08-03T02:10:00.923Z,72.88
2022-08-03T02:11:00.931Z,72.78
2022-08-03T02:12:00.900Z,72.88
2022-08-03T02:13:00.924Z,72.95
2022-08-03T02:14:00.882Z,72.54
2022-08-03T02:15:00.995Z,72.44
2022-08-03T02:16:00.847Z,72.98
2022-08-03T02:17:00.850Z,73.28
2022-08-03T02:18:00.892Z,73.08
2022-08-03T02:19:00.826Z,73.28
2022-08-03T02:20:00.802Z,73.28
2022-08-03T02:21:00.793Z,73.58
2022-08-03T02:22:01.250Z,73.89
2022-08-03T02:23:00.765Z,73.79
2022-08-03T02:24:00.801Z,73.58
2022-08-03T02:25:00.749Z,73.89
2022-08-03T02:26:01.800Z,73.99
2022-08-03T02:27:00.719Z,73.62
2022-08-03T02:28:00.685Z,74.22
2022-08-03T02:29:00.739Z,74.22
2022-08-03T02:30:00.670Z,74.33
2022-08-03T02:31:00.673Z,74.22
2022-08-03T02:32:00.637Z,74.53
2022-08-03T02:33:00.700Z,74.09
2022-08-03T02:34:00.610Z,73.89
2022-08-03T02:35:00.668Z,73.28
2022-08-03T02:36:00.598Z,72.98
2022-08-03T02:37:00.588Z,72.98
2022-08-03T02:38:00.563Z,73.08
2022-08-03T02:39:00.562Z,73.08
2022-08-03T02:40:00.579Z,73.38
2022-08-03T02:41:00.543Z,73.49
2022-08-03T02:42:00.508Z,73.55
2022-08-03T02:43:00.511Z,73.28
2022-08-03T02:44:06.903Z,72.98
2022-08-03T02:45:00.497Z,72.78
2022-08-03T02:46:00.509Z,72.64
2022-08-03T02:47:00.458Z,72.68
2022-08-03T02:48:00.440Z,72.95
2022-08-03T02:49:00.460Z,72.64
2022-08-03T02:50:00.486Z,72.98
2022-08-03T02:51:00.455Z,72.88
2022-08-03T02:52:00.437Z,72.98
2022-08-03T02:53:00.384Z,72.78
2022-08-03T02:54:00.361Z,72.95
2022-08-03T02:55:00.363Z,72.54
2022-08-03T02:56:00.324Z,72.44
2022-08-03T02:57:00.351Z,72.14
2022-08-03T02:58:01.396Z,71.94
2022-08-03T02:59:00.305Z,71.73
2022-08-03T03:00:00.276Z,71.53
2022-08-03T03:01:00.311Z,71.44
2022-08-03T03:02:00.292Z,71.13
2022-08-03T03:03:00.322Z,71.23
2022-08-03T03:04:00.229Z,70.93
2022-08-03T03:05:55.074Z,71.23
2022-08-03T03:06:01.469Z,71.73
2022-08-03T03:07:00.195Z,71.64
2022-08-03T03:08:00.204Z,71.73
2022-08-03T03:09:00.170Z,71.73
2022-08-03T03:10:00.161Z,71.84
2022-08-03T03:11:00.180Z,72.14
2022-08-03T03:12:00.135Z,71.64
2022-08-03T03:13:00.180Z,72.24
2022-08-03T03:14:00.112Z,72.48
2022-08-03T03:15:00.218Z,72.68
2022-08-03T03:16:00.078Z,72.78
2022-08-03T03:17:00.067Z,72.88
2022-08-03T03:18:00.045Z,73.18
2022-08-03T03:19:00.101Z,73.28
2022-08-03T03:20:00.016Z,73.58
2022-08-03T03:21:00.026Z,73.62
2022-08-03T03:21:59.988Z,73.82
2022-08-03T03:23:00.003Z,74.02
2022-08-03T03:24:00.004Z,74.02
2022-08-03T03:24:59.975Z,74.22
2022-08-03T03:25:59.879Z,74.02
2022-08-03T03:26:59.879Z,74.93
2022-08-03T03:27:59.862Z,75.57
2022-08-03T03:28:59.880Z,76.18
2022-08-03T03:29:59.859Z,76.08
2022-08-03T03:30:59.842Z,75.98
2022-08-03T03:31:59.821Z,75.57
2022-08-03T03:32:59.810Z,76.08
2022-08-03T03:33:59.804Z,76.18
2022-08-03T03:34:59.823Z,75.48
2022-08-03T03:35:59.753Z,75.27
2022-08-03T03:36:59.755Z,74.87
2022-08-03T03:37:59.721Z,74.97
2022-08-03T03:38:59.729Z,74.87
2022-08-03T03:39:59.721Z,75.07
2022-08-03T03:40:59.717Z,74.97
2022-08-03T03:41:59.694Z,74.97
2022-08-03T03:42:59.656Z,75.27
2022-08-03T03:43:59.662Z,75.37
2022-08-03T03:44:59.637Z,75.98
2022-08-03T03:45:59.674Z,75.88
2022-08-03T03:46:59.611Z,75.88
2022-08-03T03:47:59.612Z,75.88
2022-08-03T03:48:59.633Z,75.57
2022-08-03T03:49:59.575Z,76.59
2022-08-03T03:50:59.615Z,75.98
2022-08-03T03:51:59.587Z,75.68
2022-08-03T03:52:59.529Z,75.27
2022-08-03T03:53:59.529Z,75.57
2022-08-03T03:55:01.329Z,75.68
2022-08-03T03:56:02.882Z,75.78
2022-08-03T03:56:59.498Z,75.57
2022-08-03T03:57:59.477Z,75.37
2022-08-03T03:58:59.449Z,75.88
2022-08-03T03:59:59.452Z,76.22
2022-08-03T04:00:59.497Z,76.52
2022-08-03T04:01:59.501Z,76.62
2022-08-03T04:02:59.397Z,77.03
2022-08-03T04:03:59.401Z,77.23
2022-08-03T04:04:59.375Z,77.53
2022-08-03T04:05:59.378Z,77.97
2022-08-03T04:06:59.353Z,78.17
2022-08-03T04:07:59.379Z,78.28
2022-08-03T04:08:59.319Z,78.28
2022-08-03T04:09:59.321Z,78.68
2022-08-03T04:10:59.300Z,78.88
2022-08-03T04:11:59.312Z,78.88
2022-08-03T04:12:59.315Z,78.99
2022-08-03T04:14:02.009Z,79.39
2022-08-03T04:14:59.255Z,79.49
2022-08-03T04:15:59.255Z,79.19
2022-08-03T04:16:59.220Z,78.78
2022-08-03T04:17:59.219Z,78.48
2022-08-03T04:18:59.500Z,78.88
2022-08-03T04:19:59.197Z,78.95
2022-08-03T04:20:59.165Z,79.46
2022-08-03T04:21:59.162Z,79.25
2022-08-03T04:22:59.137Z,78.64
2022-08-03T04:23:59.181Z,79.11
2022-08-03T04:24:59.116Z,78.81
2022-08-03T04:25:59.117Z,80.22
2022-08-03T04:26:59.090Z,79.82
2022-08-03T04:28:08.009Z,79.41
2022-08-03T04:28:59.070Z,78.81
2022-08-03T04:29:59.090Z,79.11
2022-08-03T04:30:59.041Z,79.52
2022-08-03T04:31:59.041Z,78.41
2022-08-03T04:32:59.015Z,79.32
2022-08-03T04:33:59.042Z,78.27
2022-08-03T04:34:59.024Z,77.36
2022-08-03T04:36:01.677Z,77.26
2022-08-03T04:36:58.954Z,77.36
2022-08-03T04:37:58.954Z,77.66
2022-08-03T04:38:58.929Z,76.55
2022-08-03T04:39:58.928Z,76.65
2022-08-03T04:40:58.946Z,76.04
2022-08-03T04:42:06.943Z,75.81
2022-08-03T04:42:58.890Z,76.01
2022-08-03T04:43:58.885Z,75.91
2022-08-03T04:45:01.447Z,75.81
2022-08-03T04:45:58.902Z,75.10
2022-08-03T04:46:58.838Z,74.40
2022-08-03T04:47:58.818Z,73.89
2022-08-03T04:48:58.829Z,74.36
2022-08-03T04:49:58.799Z,74.46
2022-08-03T04:50:58.777Z,75.07
2022-08-03T04:51:58.800Z,74.43
2022-08-03T04:52:58.744Z,74.02
2022-08-03T04:53:58.745Z,73.62
2022-08-03T04:54:58.719Z,74.02
2022-08-03T04:55:58.720Z,73.52
2022-08-03T04:56:58.737Z,72.91
2022-08-03T04:57:58.699Z,73.01
2022-08-03T04:58:58.668Z,72.67
2022-08-03T05:00:03.158Z,72.38
2022-08-03T05:00:58.650Z,71.10
2022-08-03T05:01:58.739Z,68.68
2022-08-03T05:02:58.647Z,66.28
2022-08-03T05:03:58.622Z,63.87
2022-08-03T05:04:58.597Z,61.68
2022-08-03T05:06:09.606Z,60.05
2022-08-03T05:06:58.564Z,58.09
2022-08-03T05:07:58.596Z,57.67
2022-08-03T05:08:58.536Z,56.84
2022-08-03T05:10:02.834Z,56.41
2022-08-03T05:10:58.869Z,56.31
2022-08-03T05:11:58.518Z,55.79
2022-08-03T05:12:58.540Z,54.64
2022-08-03T05:13:58.483Z,54.11
2022-08-03T05:14:58.470Z,53.09
2022-08-03T05:15:58.461Z,52.14
2022-08-03T05:16:58.439Z,51.54
2022-08-03T05:17:58.434Z,51.03
2022-08-03T05:18:58.442Z,50.52
2022-08-03T05:19:58.414Z,50.63
2022-08-03T05:20:58.394Z,51.15
2022-08-03T05:21:58.381Z,52.29
2022-08-03T05:22:58.358Z,53.94
2022-08-03T05:23:58.401Z,55.69
2022-08-03T05:24:58.335Z,57.04
2022-08-03T05:25:58.340Z,58.06
2022-08-03T05:26:58.344Z,59.49
2022-08-03T05:27:58.304Z,60.62
2022-08-03T05:28:58.310Z,61.75
2022-08-03T05:30:30.956Z,62.28
2022-08-03T05:30:58.258Z,62.68
2022-08-03T05:31:58.270Z,64.01
2022-08-03T05:32:58.232Z,63.81
2022-08-03T05:33:58.232Z,64.09
2022-08-03T05:34:58.245Z,63.65
2022-08-03T05:36:03.223Z,62.39
2022-08-03T05:36:58.175Z,60.53
2022-08-03T05:37:58.192Z,59.08
2022-08-03T05:39:02.471Z,58.25
2022-08-03T05:39:58.151Z,58.15
2022-08-03T05:41:21.961Z,58.36
2022-08-03T05:41:58.137Z,58.15
2022-08-03T05:42:58.100Z,57.10
2022-08-03T05:43:58.116Z,56.05
2022-08-03T05:44:58.089Z,54.60
2022-08-03T05:46:11.479Z,53.88
2022-08-03T05:46:58.049Z,52.96
2022-08-03T05:47:58.050Z,52.04
2022-08-03T05:48:58.090Z,51.72
2022-08-03T05:49:58.026Z,51.12
2022-08-03T05:50:57.996Z,51.20
2022-08-03T05:51:59.998Z,51.00
2022-08-03T05:52:57.968Z,50.70
2022-08-03T05:53:57.969Z,50.60
2022-08-03T05:54:57.942Z,50.60
2022-08-03T05:56:03.471Z,51.32
2022-08-03T05:56:57.956Z,51.52
2022-08-03T05:57:57.920Z,51.23
2022-08-03T05:58:57.888Z,50.93
2022-08-03T05:59:58.661Z,51.72
2022-08-03T06:00:57.859Z,51.25
2022-08-03T06:01:57.955Z,51.23
2022-08-03T06:02:57.844Z,50.83
2022-08-03T06:03:57.843Z,50.21
2022-08-03T06:04:57.815Z,50.18
2022-08-03T06:06:00.254Z,49.79
2022-08-03T06:06:57.789Z,49.57
2022-08-03T06:07:57.816Z,49.88
2022-08-03T06:08:57.754Z,50.81
2022-08-03T06:10:36.291Z,50.60
2022-08-03T06:10:57.753Z,49.99
2022-08-03T06:11:57.758Z,50.18
2022-08-03T06:12:57.753Z,49.17
2022-08-03T06:13:57.721Z,49.76
2022-08-03T06:14:57.696Z,49.57
2022-08-03T06:15:57.701Z,49.59
2022-08-03T06:16:57.660Z,49.86
2022-08-03T06:18:01.761Z,49.66
2022-08-03T06:18:57.704Z,49.46
2022-08-03T06:19:57.642Z,49.66
2022-08-03T06:20:57.620Z,49.76
2022-08-03T06:21:57.607Z,49.37
2022-08-03T06:23:00.942Z,49.17
2022-08-03T06:23:57.629Z,49.57
2022-08-03T06:24:57.549Z,49.37
2022-08-03T06:25:57.560Z,49.69
2022-08-03T06:26:57.576Z,49.88
2022-08-03T06:27:57.528Z,49.59
2022-08-03T06:28:57.559Z,49.49
2022-08-03T06:29:57.508Z,50.51
2022-08-03T06:30:57.510Z,51.23
2022-08-03T06:31:57.472Z,50.53
2022-08-03T06:32:57.453Z,50.31
2022-08-03T06:34:33.510Z,49.49
2022-08-03T06:34:57.457Z,48.99
2022-08-03T06:35:57.428Z,48.97
2022-08-03T06:37:01.720Z,49.17
2022-08-03T06:37:57.402Z,48.55
2022-08-03T06:38:57.389Z,48.55
2022-08-03T06:39:57.433Z,47.93
2022-08-03T06:40:57.354Z,47.86
2022-08-03T06:41:57.348Z,47.86
2022-08-03T06:42:57.329Z,48.45
2022-08-03T06:44:03.290Z,48.85
2022-08-03T06:44:57.305Z,47.83
2022-08-03T06:45:57.320Z,47.91
2022-08-03T06:46:57.269Z,47.61
2022-08-03T06:47:57.272Z,47.59
2022-08-03T06:48:57.321Z,47.09
2022-08-03T06:50:14.262Z,46.67
2022-08-03T06:50:57.242Z,46.58
2022-08-03T06:52:06.107Z,46.67
2022-08-03T06:52:57.202Z,46.16
2022-08-03T06:53:57.192Z,46.75
2022-08-03T06:54:57.181Z,46.08
2022-08-03T06:55:57.216Z,46.58
2022-08-03T06:56:57.148Z,46.55
2022-08-03T06:57:59.865Z,45.86
2022-08-03T06:58:57.122Z,46.75
2022-08-03T07:00:08.850Z,47.05
2022-08-03T07:00:57.195Z,45.86
2022-08-03T07:01:57.118Z,45.54
2022-08-03T07:02:58.475Z,45.15
2022-08-03T07:03:57.084Z,43.96
2022-08-03T07:04:57.207Z,44.46
2022-08-03T07:05:57.037Z,45.05
2022-08-03T07:06:57.067Z,43.77
2022-08-03T07:07:57.012Z,44.16
2022-08-03T07:08:59.610Z,42.58
2022-08-03T07:09:58.285Z,42.85
2022-08-03T07:10:56.997Z,43.65
2022-08-03T07:11:56.970Z,43.74
2022-08-03T07:12:57.096Z,42.76
2022-08-03T07:13:56.945Z,39.79
2022-08-03T07:15:00.819Z,41.08
2022-08-03T07:15:57.040Z,40.88
2022-08-03T07:16:56.886Z,39.60
2022-08-03T07:17:56.923Z,39.70
2022-08-03T07:18:56.886Z,39.48
2022-08-03T07:19:57.031Z,40.64
2022-08-03T07:20:56.832Z,39.95
2022-08-03T07:22:00.166Z,39.54
2022-08-03T07:22:56.825Z,39.94
2022-08-03T07:23:56.872Z,40.31
2022-08-03T07:24:56.781Z,39.79
2022-08-03T07:25:56.815Z,38.54
2022-08-03T07:26:56.844Z,38.54
2022-08-03T07:27:56.766Z,38.43
2022-08-03T07:28:56.799Z,38.83
2022-08-03T07:29:56.743Z,38.24
2022-08-03T07:30:56.719Z,39.32
2022-08-03T07:31:56.715Z,38.93
2022-08-03T07:32:56.694Z,38.62
2022-08-03T07:33:56.681Z,38.54
2022-08-03T07:35:00.552Z,38.34
2022-08-03T07:35:56.669Z,38.51
2022-08-03T07:36:56.641Z,38.51
2022-08-03T07:37:56.660Z,38.79
2022-08-03T07:38:56.600Z,39.18
2022-08-03T07:39:56.655Z,38.78
2022-08-03T07:40:56.590Z,37.59
2022-08-03T07:41:56.641Z,37.79
2022-08-03T07:42:56.547Z,37.40
2022-08-03T07:43:56.573Z,37.89
2022-08-03T07:44:56.526Z,37.59
2022-08-03T07:45:56.551Z,37.49
2022-08-03T07:46:56.721Z,37.69
2022-08-03T07:47:56.501Z,37.28
2022-08-03T07:48:56.492Z,37.38
2022-08-03T07:49:56.469Z,37.38
2022-08-03T07:50:56.498Z,37.46
2022-08-03T07:51:56.466Z,37.18
2022-08-03T07:52:56.420Z,37.08
2022-08-03T07:53:56.436Z,37.28
2022-08-03T07:54:56.415Z,37.10
2022-08-03T07:55:56.389Z,37.40
2022-08-03T07:56:56.418Z,37.59
2022-08-03T07:57:56.390Z,37.97
2022-08-03T07:58:56.402Z,37.77
2022-08-03T08:00:01.337Z,37.65
2022-08-03T08:00:56.420Z,37.15
2022-08-03T08:01:56.355Z,37.15
2022-08-03T08:02:56.320Z,34.78
2022-08-03T08:03:56.278Z,34.99
2022-08-03T08:04:56.283Z,35.77
2022-08-03T08:05:56.262Z,36.26
2022-08-03T08:06:56.349Z,35.78
2022-08-03T08:07:56.267Z,35.59
2022-08-03T08:08:56.379Z,35.88
2022-08-03T08:09:56.231Z,36.16
2022-08-03T08:10:58.378Z,36.16
2022-08-03T08:11:56.184Z,36.26
2022-08-03T08:12:56.277Z,35.38
2022-08-03T08:13:56.159Z,35.95
2022-08-03T08:14:56.169Z,35.16
2022-08-03T08:15:56.136Z,34.97
2022-08-03T08:16:56.133Z,34.39
2022-08-03T08:17:56.307Z,34.49
2022-08-03T08:18:56.138Z,35.18
2022-08-03T08:19:56.215Z,35.55
2022-08-03T08:20:56.108Z,34.97
2022-08-03T08:22:02.847Z,35.46
2022-08-03T08:22:56.060Z,34.20
2022-08-03T08:23:57.151Z,34.77
2022-08-03T08:24:56.036Z,34.28
2022-08-03T08:25:56.017Z,33.69
2022-08-03T08:26:56.009Z,33.97
2022-08-03T08:28:22.363Z,34.46
2022-08-03T08:28:56.000Z,34.05
2022-08-03T08:30:00.589Z,34.34
2022-08-03T08:30:56.036Z,34.33
2022-08-03T08:31:55.935Z,33.25
2022-08-03T08:32:55.935Z,33.46
2022-08-03T08:34:04.606Z,34.25
2022-08-03T08:34:55.939Z,34.44
2022-08-03T08:35:55.886Z,34.83
2022-08-03T08:36:55.925Z,34.42
2022-08-03T08:37:55.861Z,33.94
2022-08-03T08:38:55.861Z,33.62
2022-08-03T08:39:55.921Z,33.43
2022-08-03T08:40:55.843Z,32.73
2022-08-03T08:41:55.821Z,32.92
2022-08-03T08:42:58.743Z,32.94
2022-08-03T08:43:59.953Z,33.80
2022-08-03T08:44:55.799Z,33.23
2022-08-03T08:45:55.916Z,34.70
2022-08-03T08:46:55.791Z,33.90
2022-08-03T08:48:00.178Z,32.14
2022-08-03T08:48:55.773Z,32.37
2022-08-03T08:50:09.339Z,34.13
2022-08-03T08:50:55.747Z,34.05
2022-08-03T08:52:00.699Z,34.26
2022-08-03T08:52:55.800Z,34.85
2022-08-03T08:53:55.680Z,34.93
2022-08-03T08:54:55.697Z,34.23
2022-08-03T08:55:58.686Z,33.44
2022-08-03T08:56:55.648Z,34.25
2022-08-03T08:57:55.608Z,34.25
2022-08-03T08:58:55.629Z,33.28
2022-08-03T08:59:57.321Z,33.69
2022-08-03T09:00:55.648Z,34.39
2022-08-03T09:01:55.592Z,34.87
2022-08-03T09:02:55.588Z,34.66
2022-08-03T09:03:55.549Z,34.25
2022-08-03T09:04:55.569Z,34.33
2022-08-03T09:05:56.416Z,33.80
2022-08-03T09:07:18.842Z,31.94
2022-08-03T09:07:55.491Z,32.74
2022-08-03T09:08:55.487Z,34.01
2022-08-03T09:10:10.649Z,33.62
2022-08-03T09:10:55.471Z,34.00
2022-08-03T09:12:13.751Z,33.23
2022-08-03T09:12:55.440Z,32.63
2022-08-03T09:13:55.418Z,33.33
2022-08-03T09:15:16.032Z,33.43
2022-08-03T09:16:01.020Z,33.14
2022-08-03T09:16:55.404Z,33.12
2022-08-03T09:17:55.394Z,33.89
2022-08-03T09:18:55.363Z,32.89
2022-08-03T09:20:03.283Z,31.70
2022-08-03T09:20:55.348Z,31.11
2022-08-03T09:21:55.318Z,31.41
2022-08-03T09:22:55.400Z,31.70
2022-08-03T09:24:02.173Z,31.80
2022-08-03T09:25:21.711Z,31.41
2022-08-03T09:25:55.311Z,30.43
2022-08-03T09:26:55.279Z,31.45
2022-08-03T09:27:55.238Z,31.96
2022-08-03T09:29:01.994Z,32.64
2022-08-03T09:29:55.237Z,32.74
2022-08-03T09:30:55.218Z,33.12
2022-08-03T09:31:55.192Z,32.51
2022-08-03T09:32:55.201Z,32.12
2022-08-03T09:33:55.215Z,31.52
2022-08-03T09:34:58.126Z,31.62
2022-08-03T09:35:57.640Z,31.23
2022-08-03T09:36:55.952Z,31.03
2022-08-03T09:38:11.848Z,31.60
2022-08-03T09:38:55.181Z,31.59
2022-08-03T09:39:55.139Z,31.49
2022-08-03T09:40:59.510Z,31.68
2022-08-03T09:41:55.094Z,31.20
2022-08-03T09:42:55.079Z,30.80
2022-08-03T09:43:55.049Z,31.00
2022-08-03T09:44:55.185Z,30.69
2022-08-03T09:45:55.034Z,30.12
2022-08-03T09:46:55.019Z,30.22
2022-08-03T09:47:55.051Z,30.61
2022-08-03T09:48:55.011Z,30.79
2022-08-03T09:49:55.151Z,31.18
2022-08-03T09:50:56.875Z,30.19
2022-08-03T09:52:33.235Z,30.59
2022-08-03T09:52:55.009Z,30.79
2022-08-03T09:53:58.894Z,30.59
2022-08-03T09:54:54.925Z,30.79
2022-08-03T09:56:33.720Z,29.90
2022-08-03T09:56:54.906Z,29.99
2022-08-03T09:57:54.899Z,30.19
2022-08-03T09:58:54.873Z,29.79
2022-08-03T10:00:04.778Z,29.47
2022-08-03T10:00:55.223Z,29.56
2022-08-03T10:01:54.865Z,30.18
2022-08-03T10:02:54.884Z,30.18
2022-08-03T10:04:04.311Z,29.70
2022-08-03T10:04:54.802Z,30.18
2022-08-03T10:05:59.375Z,29.79
2022-08-03T10:06:54.825Z,29.69
2022-08-03T10:07:54.810Z,29.88
2022-08-03T10:08:54.749Z,29.96
2022-08-03T10:09:54.769Z,29.77
2022-08-03T10:10:54.723Z,29.57
2022-08-03T10:11:54.712Z,29.57
2022-08-03T10:12:54.819Z,29.08
2022-08-03T10:14:01.180Z,28.88
2022-08-03T10:14:54.764Z,28.58
2022-08-03T10:16:21.425Z,29.38
2022-08-03T10:16:54.665Z,29.21
2022-08-03T10:17:54.731Z,30.40
2022-08-03T10:18:54.690Z,30.58
2022-08-03T10:19:54.598Z,30.77
2022-08-03T10:20:54.897Z,29.80
2022-08-03T10:21:54.575Z,29.88
2022-08-03T10:22:54.585Z,29.20
2022-08-03T10:23:54.656Z,29.30
2022-08-03T10:24:54.669Z,28.81
2022-08-03T10:25:54.535Z,28.91
2022-08-03T10:26:54.577Z,28.61
2022-08-03T10:27:54.497Z,28.99
2022-08-03T10:28:54.607Z,28.79
2022-08-03T10:29:54.536Z,28.39
2022-08-03T10:30:54.559Z,28.28
2022-08-03T10:31:57.925Z,27.98
2022-08-03T10:32:54.453Z,28.50
2022-08-03T10:33:54.551Z,28.99
2022-08-03T10:34:59.810Z,29.07
2022-08-03T10:35:54.423Z,28.68
2022-08-03T10:36:54.629Z,28.29
2022-08-03T10:37:56.923Z,28.39
2022-08-03T10:38:54.391Z,28.49
2022-08-03T10:39:54.410Z,28.68
2022-08-03T10:40:58.657Z,28.78
2022-08-03T10:41:54.550Z,28.19
2022-08-03T10:42:54.332Z,28.00
2022-08-03T10:43:54.335Z,27.70
2022-08-03T10:44:54.320Z,28.11
2022-08-03T10:45:54.315Z,28.59
2022-08-03T10:46:54.283Z,29.08
2022-08-03T10:47:54.278Z,29.08
2022-08-03T10:48:54.308Z,29.38
2022-08-03T10:49:54.314Z,29.30
2022-08-03T10:50:54.274Z,28.32
2022-08-03T10:51:54.501Z,29.10
2022-08-03T10:52:54.210Z,28.79
2022-08-03T10:53:55.688Z,28.78
2022-08-03T10:54:54.221Z,28.00
2022-08-03T10:55:54.175Z,28.59
2022-08-03T10:56:54.614Z,28.99
2022-08-03T10:57:58.469Z,28.81
2022-08-03T10:58:57.403Z,28.89
2022-08-03T10:59:54.143Z,28.29
2022-08-03T11:00:54.136Z,28.28
2022-08-03T11:02:00.269Z,28.57
2022-08-03T11:02:54.116Z,28.07
2022-08-03T11:03:54.058Z,27.28
2022-08-03T11:04:54.087Z,26.89
2022-08-03T11:05:54.038Z,26.59
2022-08-03T11:06:54.140Z,26.97
2022-08-03T11:07:54.761Z,26.48
2022-08-03T11:08:54.008Z,26.58
2022-08-03T11:09:54.057Z,25.79
2022-08-03T11:10:53.988Z,25.49
2022-08-03T11:11:54.005Z,25.49
2022-08-03T11:12:54.004Z,24.83
2022-08-03T11:13:53.940Z,25.81
2022-08-03T11:14:53.943Z,26.80
2022-08-03T11:15:53.936Z,27.02
2022-08-03T11:16:54.032Z,27.45
2022-08-03T11:17:55.982Z,28.53
2022-08-03T11:18:53.918Z,28.63
2022-08-03T11:19:56.905Z,27.94
2022-08-03T11:20:53.873Z,28.23
2022-08-03T11:21:53.832Z,28.30
2022-08-03T11:22:53.846Z,28.59
2022-08-03T11:24:05.620Z,27.72
2022-08-03T11:24:53.820Z,28.00
2022-08-03T11:25:55.386Z,27.90
2022-08-03T11:26:53.887Z,27.33
2022-08-03T11:27:53.771Z,27.61
2022-08-03T11:28:53.856Z,28.12
2022-08-03T11:29:53.774Z,28.32
2022-08-03T11:30:53.743Z,28.33
2022-08-03T11:31:53.725Z,28.72
2022-08-03T11:32:53.744Z,28.71
2022-08-03T11:33:53.714Z,28.59
2022-08-03T11:34:53.755Z,28.78
2022-08-03T11:35:53.663Z,28.67
2022-08-03T11:36:53.897Z,27.90
2022-08-03T11:38:03.123Z,28.42
2022-08-03T11:38:53.654Z,28.81
2022-08-03T11:39:53.620Z,28.99
2022-08-03T11:40:53.652Z,27.80
2022-08-03T11:41:53.626Z,28.09
2022-08-03T11:42:53.602Z,27.51
2022-08-03T11:43:53.580Z,27.90
2022-08-03T11:44:53.573Z,27.91
2022-08-03T11:45:53.626Z,28.42
2022-08-03T11:46:53.547Z,28.50
2022-08-03T11:47:53.527Z,28.59
2022-08-03T11:48:53.559Z,28.18
2022-08-03T11:49:53.507Z,27.69
2022-08-03T11:50:53.520Z,27.70
2022-08-03T11:51:53.503Z,28.59
2022-08-03T11:52:53.515Z,28.91
2022-08-03T11:53:53.449Z,28.82
2022-08-03T11:54:56.895Z,29.60
2022-08-03T11:55:53.471Z,29.02
2022-08-03T11:56:53.471Z,28.53
2022-08-03T11:59:11.261Z,28.42
2022-08-03T11:59:24.216Z,28.50
2022-08-03T11:59:53.373Z,28.50
2022-08-03T12:00:53.432Z,28.20
2022-08-03T12:01:53.345Z,27.72
2022-08-03T12:02:53.581Z,28.74
2022-08-03T12:03:53.423Z,29.42
2022-08-03T12:04:53.329Z,29.32
2022-08-03T12:05:53.313Z,28.93
2022-08-03T12:06:53.327Z,29.02
2022-08-03T12:08:03.641Z,29.11
2022-08-03T12:08:53.289Z,29.69
2022-08-03T12:09:53.301Z,28.81
2022-08-03T12:10:53.260Z,28.92
2022-08-03T12:11:59.835Z,28.92
2022-08-03T12:12:53.225Z,28.63
2022-08-03T12:14:32.972Z,28.91
2022-08-03T12:14:53.213Z,28.43
2022-08-03T12:15:53.226Z,29.03
2022-08-03T12:16:53.218Z,28.74
2022-08-03T12:17:57.591Z,28.92
2022-08-03T12:18:53.394Z,29.10
2022-08-03T12:19:53.151Z,28.81
2022-08-03T12:20:53.128Z,28.91
2022-08-03T12:21:57.255Z,28.53
2022-08-03T12:22:53.098Z,28.33
2022-08-03T12:23:53.101Z,28.74
2022-08-03T12:24:53.101Z,28.92
2022-08-03T12:25:53.259Z,29.90
2022-08-03T12:26:59.452Z,29.52
2022-08-03T12:27:53.053Z,29.31
2022-08-03T12:28:53.055Z,29.02
2022-08-03T12:29:58.203Z,28.33
2022-08-03T12:30:53.005Z,27.94
2022-08-03T12:31:53.010Z,29.42
2022-08-03T12:32:52.995Z,28.93
2022-08-03T12:33:53.003Z,28.92
2022-08-03T12:34:52.994Z,28.81
2022-08-03T12:35:52.965Z,28.23
2022-08-03T12:36:52.950Z,28.43
2022-08-03T12:37:52.933Z,28.50
2022-08-03T12:38:52.909Z,27.50
2022-08-03T12:40:01.415Z,26.98
2022-08-03T12:40:52.915Z,26.87
2022-08-03T12:41:52.889Z,26.76
2022-08-03T12:42:52.853Z,26.97
2022-08-03T12:43:52.875Z,27.47
2022-08-03T12:44:56.287Z,26.97
2022-08-03T12:45:52.937Z,26.37
2022-08-03T12:46:52.800Z,26.48
2022-08-03T12:47:52.911Z,26.19
2022-08-03T12:48:52.825Z,26.30
2022-08-03T12:49:52.886Z,25.80
2022-08-03T12:50:53.770Z,25.69
2022-08-03T12:51:52.935Z,25.40
2022-08-03T12:52:52.752Z,25.38